sensor_id;sensor_type;location;lat;lon;timestamp;P1;durP1;ratioP1;P2;durP2;ratioP2
21301;SDS011;10810;48.270;9.996;2023-03-26T00:01:39;1.90;;;0.60;;
21301;SDS011;10810;48.270;9.996;2023-03-26T00:04:10;2.40;;;0.67;;
21301;SDS011;10810;48.270;9.996;2023-03-26T00:06:37;0.93;;;0.50;;
21301;SDS011;10810;48.270;9.996;2023-03-26T00:09:07;1.27;;;0.60;;
21301;SDS011;10810;48.270;9.996;2023-03-26T00:11:35;1.50;;;0.67;;
21301;SDS011;10810;48.270;9.996;2023-03-26T00:14:02;2.70;;;0.73;;
21301;SDS011;10810;48.270;9.996;2023-03-26T00:16:30;3.33;;;0.70;;
21301;SDS011;10810;48.270;9.996;2023-03-26T00:18:58;1.20;;;0.70;;
21301;SDS011;10810;48.270;9.996;2023-03-26T00:21:27;1.10;;;0.60;;
21301;SDS011;10810;48.270;9.996;2023-03-26T00:23:55;2.47;;;1.03;;
21301;SDS011;10810;48.270;9.996;2023-03-26T00:26:23;4.23;;;1.10;;
21301;SDS011;10810;48.270;9.996;2023-03-26T00:28:51;5.73;;;1.10;;
21301;SDS011;10810;48.270;9.996;2023-03-26T00:31:18;1.27;;;0.90;;
21301;SDS011;10810;48.270;9.996;2023-03-26T00:33:47;2.80;;;0.73;;
21301;SDS011;10810;48.270;9.996;2023-03-26T00:36:19;2.83;;;0.70;;
21301;SDS011;10810;48.270;9.996;2023-03-26T00:38:49;2.27;;;0.60;;
21301;SDS011;10810;48.270;9.996;2023-03-26T00:41:17;1.33;;;0.80;;
21301;SDS011;10810;48.270;9.996;2023-03-26T00:43:50;2.13;;;0.80;;
21301;SDS011;10810;48.270;9.996;2023-03-26T00:46:20;1.20;;;0.87;;
21301;SDS011;10810;48.270;9.996;2023-03-26T00:48:48;3.03;;;0.80;;
21301;SDS011;10810;48.270;9.996;2023-03-26T00:51:16;4.50;;;1.03;;
21301;SDS011;10810;48.270;9.996;2023-03-26T00:53:45;0.80;;;0.60;;
21301;SDS011;10810;48.270;9.996;2023-03-26T00:56:13;1.53;;;0.70;;
21301;SDS011;10810;48.270;9.996;2023-03-26T00:58:41;2.27;;;0.77;;
21301;SDS011;10810;48.270;9.996;2023-03-26T01:01:09;2.40;;;0.60;;
21301;SDS011;10810;48.270;9.996;2023-03-26T01:03:39;1.30;;;0.60;;
21301;SDS011;10810;48.270;9.996;2023-03-26T01:06:09;3.37;;;0.77;;
21301;SDS011;10810;48.270;9.996;2023-03-26T01:08:45;3.70;;;0.97;;
21301;SDS011;10810;48.270;9.996;2023-03-26T01:11:14;1.80;;;0.80;;
21301;SDS011;10810;48.270;9.996;2023-03-26T01:13:43;1.17;;;0.70;;
21301;SDS011;10810;48.270;9.996;2023-03-26T01:16:17;3.07;;;0.90;;
21301;SDS011;10810;48.270;9.996;2023-03-26T01:18:47;6.57;;;1.37;;
21301;SDS011;10810;48.270;9.996;2023-03-26T01:21:19;3.47;;;0.83;;
21301;SDS011;10810;48.270;9.996;2023-03-26T01:23:48;2.00;;;0.83;;
21301;SDS011;10810;48.270;9.996;2023-03-26T01:26:44;2.97;;;0.70;;
21301;SDS011;10810;48.270;9.996;2023-03-26T01:29:29;4.60;;;0.93;;
21301;SDS011;10810;48.270;9.996;2023-03-26T01:32:06;1.40;;;0.90;;
21301;SDS011;10810;48.270;9.996;2023-03-26T01:34:49;2.53;;;0.80;;
21301;SDS011;10810;48.270;9.996;2023-03-26T01:37:24;1.87;;;0.80;;
21301;SDS011;10810;48.270;9.996;2023-03-26T01:40:00;4.43;;;0.80;;
21301;SDS011;10810;48.270;9.996;2023-03-26T01:42:33;4.43;;;0.70;;
21301;SDS011;10810;48.270;9.996;2023-03-26T01:45:06;2.47;;;0.87;;
21301;SDS011;10810;48.270;9.996;2023-03-26T01:47:38;3.83;;;0.80;;
21301;SDS011;10810;48.270;9.996;2023-03-26T01:50:08;2.30;;;0.80;;
21301;SDS011;10810;48.270;9.996;2023-03-26T01:52:35;3.90;;;0.80;;
21301;SDS011;10810;48.270;9.996;2023-03-26T01:55:05;3.87;;;1.10;;
21301;SDS011;10810;48.270;9.996;2023-03-26T01:57:40;5.60;;;1.23;;
21301;SDS011;10810;48.270;9.996;2023-03-26T02:00:18;2.80;;;0.87;;
21301;SDS011;10810;48.270;9.996;2023-03-26T02:03:04;3.97;;;1.10;;
21301;SDS011;10810;48.270;9.996;2023-03-26T02:05:45;5.30;;;1.00;;
21301;SDS011;10810;48.270;9.996;2023-03-26T02:08:25;1.03;;;0.67;;
21301;SDS011;10810;48.270;9.996;2023-03-26T02:11:01;5.50;;;0.90;;
21301;SDS011;10810;48.270;9.996;2023-03-26T02:13:34;2.67;;;1.00;;
21301;SDS011;10810;48.270;9.996;2023-03-26T02:16:02;4.67;;;1.00;;
21301;SDS011;10810;48.270;9.996;2023-03-26T02:18:31;5.30;;;0.90;;
21301;SDS011;10810;48.270;9.996;2023-03-26T02:21:04;2.67;;;0.80;;
21301;SDS011;10810;48.270;9.996;2023-03-26T02:23:36;3.73;;;0.90;;
21301;SDS011;10810;48.270;9.996;2023-03-26T02:26:06;2.00;;;1.17;;
21301;SDS011;10810;48.270;9.996;2023-03-26T02:28:35;4.20;;;0.80;;
21301;SDS011;10810;48.270;9.996;2023-03-26T02:31:02;3.30;;;0.90;;
21301;SDS011;10810;48.270;9.996;2023-03-26T02:33:30;2.40;;;0.90;;
21301;SDS011;10810;48.270;9.996;2023-03-26T02:35:58;1.10;;;0.70;;
21301;SDS011;10810;48.270;9.996;2023-03-26T02:38:26;3.33;;;1.00;;
21301;SDS011;10810;48.270;9.996;2023-03-26T02:40:53;3.20;;;0.80;;
21301;SDS011;10810;48.270;9.996;2023-03-26T02:43:22;3.57;;;0.90;;
21301;SDS011;10810;48.270;9.996;2023-03-26T02:45:51;1.50;;;0.70;;
21301;SDS011;10810;48.270;9.996;2023-03-26T02:48:18;2.97;;;0.80;;
21301;SDS011;10810;48.270;9.996;2023-03-26T02:50:45;3.97;;;0.90;;
21301;SDS011;10810;48.270;9.996;2023-03-26T02:53:14;3.60;;;1.00;;
21301;SDS011;10810;48.270;9.996;2023-03-26T02:55:41;1.83;;;0.83;;
21301;SDS011;10810;48.270;9.996;2023-03-26T02:58:08;2.80;;;1.00;;
21301;SDS011;10810;48.270;9.996;2023-03-26T03:00:37;1.73;;;0.90;;
21301;SDS011;10810;48.270;9.996;2023-03-26T03:03:04;3.13;;;0.80;;
21301;SDS011;10810;48.270;9.996;2023-03-26T03:05:33;1.30;;;0.80;;
21301;SDS011;10810;48.270;9.996;2023-03-26T03:08:02;1.00;;;0.80;;
21301;SDS011;10810;48.270;9.996;2023-03-26T03:10:30;6.17;;;0.87;;
21301;SDS011;10810;48.270;9.996;2023-03-26T03:12:58;4.47;;;1.00;;
21301;SDS011;10810;48.270;9.996;2023-03-26T03:15:26;3.50;;;0.87;;
21301;SDS011;10810;48.270;9.996;2023-03-26T03:17:54;5.67;;;0.90;;
21301;SDS011;10810;48.270;9.996;2023-03-26T03:20:21;4.03;;;0.70;;
21301;SDS011;10810;48.270;9.996;2023-03-26T03:22:48;3.10;;;0.90;;
21301;SDS011;10810;48.270;9.996;2023-03-26T03:25:15;5.57;;;1.10;;
21301;SDS011;10810;48.270;9.996;2023-03-26T03:27:42;3.40;;;1.37;;
21301;SDS011;10810;48.270;9.996;2023-03-26T03:30:10;2.13;;;1.00;;
21301;SDS011;10810;48.270;9.996;2023-03-26T03:32:38;4.20;;;0.90;;
21301;SDS011;10810;48.270;9.996;2023-03-26T03:35:07;3.07;;;0.80;;
21301;SDS011;10810;48.270;9.996;2023-03-26T03:37:34;4.93;;;1.23;;
21301;SDS011;10810;48.270;9.996;2023-03-26T03:40:02;2.20;;;0.87;;
21301;SDS011;10810;48.270;9.996;2023-03-26T03:42:31;6.67;;;1.13;;
21301;SDS011;10810;48.270;9.996;2023-03-26T03:44:58;2.70;;;0.73;;
21301;SDS011;10810;48.270;9.996;2023-03-26T03:47:26;2.57;;;0.80;;
21301;SDS011;10810;48.270;9.996;2023-03-26T03:49:53;1.70;;;0.80;;
21301;SDS011;10810;48.270;9.996;2023-03-26T03:52:22;3.93;;;0.83;;
21301;SDS011;10810;48.270;9.996;2023-03-26T03:54:49;2.00;;;0.83;;
21301;SDS011;10810;48.270;9.996;2023-03-26T03:57:16;1.37;;;0.80;;
21301;SDS011;10810;48.270;9.996;2023-03-26T03:59:46;4.70;;;0.93;;
21301;SDS011;10810;48.270;9.996;2023-03-26T04:02:13;2.97;;;1.00;;
21301;SDS011;10810;48.270;9.996;2023-03-26T04:04:50;5.43;;;0.83;;
21301;SDS011;10810;48.270;9.996;2023-03-26T04:07:17;4.70;;;0.90;;
21301;SDS011;10810;48.270;9.996;2023-03-26T04:09:45;3.27;;;0.80;;
21301;SDS011;10810;48.270;9.996;2023-03-26T04:12:12;6.00;;;1.00;;
21301;SDS011;10810;48.270;9.996;2023-03-26T04:14:40;1.33;;;0.80;;
21301;SDS011;10810;48.270;9.996;2023-03-26T04:17:07;4.77;;;0.67;;
21301;SDS011;10810;48.270;9.996;2023-03-26T04:19:37;3.00;;;0.70;;
21301;SDS011;10810;48.270;9.996;2023-03-26T04:22:04;2.03;;;0.80;;
21301;SDS011;10810;48.270;9.996;2023-03-26T04:24:32;2.50;;;0.90;;
21301;SDS011;10810;48.270;9.996;2023-03-26T04:27:05;2.20;;;1.10;;
21301;SDS011;10810;48.270;9.996;2023-03-26T04:29:36;2.97;;;0.90;;
21301;SDS011;10810;48.270;9.996;2023-03-26T04:32:07;1.43;;;0.60;;
21301;SDS011;10810;48.270;9.996;2023-03-26T04:34:38;6.30;;;1.07;;
21301;SDS011;10810;48.270;9.996;2023-03-26T04:37:12;1.57;;;0.80;;
21301;SDS011;10810;48.270;9.996;2023-03-26T04:39:45;1.27;;;0.93;;
21301;SDS011;10810;48.270;9.996;2023-03-26T04:42:15;2.77;;;0.80;;
21301;SDS011;10810;48.270;9.996;2023-03-26T04:44:44;0.63;;;0.60;;
21301;SDS011;10810;48.270;9.996;2023-03-26T04:47:11;1.90;;;0.80;;
21301;SDS011;10810;48.270;9.996;2023-03-26T04:49:38;3.07;;;0.90;;
21301;SDS011;10810;48.270;9.996;2023-03-26T04:52:05;1.67;;;0.70;;
21301;SDS011;10810;48.270;9.996;2023-03-26T04:54:32;3.30;;;0.90;;
21301;SDS011;10810;48.270;9.996;2023-03-26T04:56:59;1.67;;;0.70;;
21301;SDS011;10810;48.270;9.996;2023-03-26T04:59:32;3.20;;;0.80;;
21301;SDS011;10810;48.270;9.996;2023-03-26T05:02:01;3.53;;;0.80;;
21301;SDS011;10810;48.270;9.996;2023-03-26T05:04:30;3.27;;;0.80;;
21301;SDS011;10810;48.270;9.996;2023-03-26T05:06:58;3.90;;;0.70;;
21301;SDS011;10810;48.270;9.996;2023-03-26T05:09:26;2.97;;;0.73;;
21301;SDS011;10810;48.270;9.996;2023-03-26T05:11:56;4.03;;;1.13;;
21301;SDS011;10810;48.270;9.996;2023-03-26T05:14:23;2.37;;;0.90;;
21301;SDS011;10810;48.270;9.996;2023-03-26T05:16:52;2.57;;;0.70;;
21301;SDS011;10810;48.270;9.996;2023-03-26T05:19:19;3.50;;;1.07;;
21301;SDS011;10810;48.270;9.996;2023-03-26T05:21:46;2.67;;;0.80;;
21301;SDS011;10810;48.270;9.996;2023-03-26T05:24:13;3.60;;;0.77;;
21301;SDS011;10810;48.270;9.996;2023-03-26T05:26:40;3.27;;;0.83;;
21301;SDS011;10810;48.270;9.996;2023-03-26T05:29:07;2.97;;;1.00;;
21301;SDS011;10810;48.270;9.996;2023-03-26T05:31:34;2.70;;;0.70;;
21301;SDS011;10810;48.270;9.996;2023-03-26T05:34:03;1.20;;;0.73;;
21301;SDS011;10810;48.270;9.996;2023-03-26T05:36:30;2.50;;;0.90;;
21301;SDS011;10810;48.270;9.996;2023-03-26T05:38:57;4.83;;;1.00;;
21301;SDS011;10810;48.270;9.996;2023-03-26T05:41:25;4.00;;;0.80;;
21301;SDS011;10810;48.270;9.996;2023-03-26T05:43:52;1.30;;;0.80;;
21301;SDS011;10810;48.270;9.996;2023-03-26T05:46:19;4.60;;;1.10;;
21301;SDS011;10810;48.270;9.996;2023-03-26T05:48:47;2.23;;;0.60;;
21301;SDS011;10810;48.270;9.996;2023-03-26T05:51:17;3.60;;;1.00;;
21301;SDS011;10810;48.270;9.996;2023-03-26T05:53:44;3.57;;;0.97;;
21301;SDS011;10810;48.270;9.996;2023-03-26T05:56:11;2.87;;;0.87;;
21301;SDS011;10810;48.270;9.996;2023-03-26T05:58:41;4.17;;;0.93;;
21301;SDS011;10810;48.270;9.996;2023-03-26T06:01:09;1.23;;;0.70;;
21301;SDS011;10810;48.270;9.996;2023-03-26T06:03:41;7.00;;;0.90;;
21301;SDS011;10810;48.270;9.996;2023-03-26T06:06:10;1.50;;;0.70;;
21301;SDS011;10810;48.270;9.996;2023-03-26T06:08:41;5.17;;;0.80;;
21301;SDS011;10810;48.270;9.996;2023-03-26T06:11:11;1.13;;;0.50;;
21301;SDS011;10810;48.270;9.996;2023-03-26T06:13:38;1.57;;;0.83;;
21301;SDS011;10810;48.270;9.996;2023-03-26T06:16:08;6.80;;;0.87;;
21301;SDS011;10810;48.270;9.996;2023-03-26T06:18:37;4.43;;;0.90;;
21301;SDS011;10810;48.270;9.996;2023-03-26T06:21:05;5.00;;;0.90;;
21301;SDS011;10810;48.270;9.996;2023-03-26T06:23:32;4.33;;;1.00;;
21301;SDS011;10810;48.270;9.996;2023-03-26T06:26:01;8.30;;;1.00;;
21301;SDS011;10810;48.270;9.996;2023-03-26T06:28:28;3.13;;;0.83;;
21301;SDS011;10810;48.270;9.996;2023-03-26T06:30:57;1.70;;;1.07;;
21301;SDS011;10810;48.270;9.996;2023-03-26T06:33:26;3.60;;;1.00;;
21301;SDS011;10810;48.270;9.996;2023-03-26T06:35:53;2.00;;;0.80;;
21301;SDS011;10810;48.270;9.996;2023-03-26T06:38:21;2.47;;;0.90;;
21301;SDS011;10810;48.270;9.996;2023-03-26T06:40:48;3.10;;;0.90;;
21301;SDS011;10810;48.270;9.996;2023-03-26T06:43:19;3.73;;;0.97;;
21301;SDS011;10810;48.270;9.996;2023-03-26T06:45:49;3.93;;;1.30;;
21301;SDS011;10810;48.270;9.996;2023-03-26T06:48:16;4.70;;;0.90;;
21301;SDS011;10810;48.270;9.996;2023-03-26T06:50:44;1.63;;;0.70;;
21301;SDS011;10810;48.270;9.996;2023-03-26T06:53:13;1.67;;;0.90;;
21301;SDS011;10810;48.270;9.996;2023-03-26T06:55:46;5.73;;;1.20;;
21301;SDS011;10810;48.270;9.996;2023-03-26T06:58:17;1.53;;;0.80;;
21301;SDS011;10810;48.270;9.996;2023-03-26T07:00:52;3.77;;;0.90;;
21301;SDS011;10810;48.270;9.996;2023-03-26T07:03:20;3.50;;;0.87;;
21301;SDS011;10810;48.270;9.996;2023-03-26T07:05:47;5.03;;;1.10;;
21301;SDS011;10810;48.270;9.996;2023-03-26T07:08:22;6.50;;;1.33;;
21301;SDS011;10810;48.270;9.996;2023-03-26T07:10:49;5.03;;;0.90;;
21301;SDS011;10810;48.270;9.996;2023-03-26T07:13:16;2.80;;;1.20;;
21301;SDS011;10810;48.270;9.996;2023-03-26T07:15:46;2.40;;;0.90;;
21301;SDS011;10810;48.270;9.996;2023-03-26T07:18:14;5.80;;;1.17;;
21301;SDS011;10810;48.270;9.996;2023-03-26T07:20:41;1.43;;;1.00;;
21301;SDS011;10810;48.270;9.996;2023-03-26T07:23:10;1.33;;;0.83;;
21301;SDS011;10810;48.270;9.996;2023-03-26T07:25:39;8.00;;;1.03;;
21301;SDS011;10810;48.270;9.996;2023-03-26T07:28:09;4.07;;;1.13;;
21301;SDS011;10810;48.270;9.996;2023-03-26T07:30:48;3.80;;;1.07;;
21301;SDS011;10810;48.270;9.996;2023-03-26T07:33:23;5.20;;;0.90;;
21301;SDS011;10810;48.270;9.996;2023-03-26T07:35:57;4.40;;;1.13;;
21301;SDS011;10810;48.270;9.996;2023-03-26T07:38:37;2.87;;;0.80;;
21301;SDS011;10810;48.270;9.996;2023-03-26T07:41:14;4.70;;;1.10;;
21301;SDS011;10810;48.270;9.996;2023-03-26T07:43:56;3.23;;;1.00;;
21301;SDS011;10810;48.270;9.996;2023-03-26T07:46:39;2.80;;;0.90;;
21301;SDS011;10810;48.270;9.996;2023-03-26T07:49:13;5.37;;;0.90;;
21301;SDS011;10810;48.270;9.996;2023-03-26T07:51:55;4.60;;;1.10;;
21301;SDS011;10810;48.270;9.996;2023-03-26T07:54:23;3.20;;;1.00;;
21301;SDS011;10810;48.270;9.996;2023-03-26T07:56:51;6.20;;;1.00;;
21301;SDS011;10810;48.270;9.996;2023-03-26T07:59:24;4.20;;;1.10;;
21301;SDS011;10810;48.270;9.996;2023-03-26T08:05:01;1.23;;;0.80;;
21301;SDS011;10810;48.270;9.996;2023-03-26T08:07:39;6.60;;;1.00;;
21301;SDS011;10810;48.270;9.996;2023-03-26T08:10:18;2.03;;;1.03;;
21301;SDS011;10810;48.270;9.996;2023-03-26T08:12:59;6.27;;;1.20;;
21301;SDS011;10810;48.270;9.996;2023-03-26T08:15:40;1.60;;;0.80;;
21301;SDS011;10810;48.270;9.996;2023-03-26T08:18:20;3.60;;;1.00;;
21301;SDS011;10810;48.270;9.996;2023-03-26T08:20:59;5.17;;;1.20;;
21301;SDS011;10810;48.270;9.996;2023-03-26T08:23:41;2.03;;;1.30;;
21301;SDS011;10810;48.270;9.996;2023-03-26T08:26:17;5.13;;;1.30;;
21301;SDS011;10810;48.270;9.996;2023-03-26T08:29:02;3.50;;;1.13;;
21301;SDS011;10810;48.270;9.996;2023-03-26T08:31:43;2.93;;;1.40;;
21301;SDS011;10810;48.270;9.996;2023-03-26T08:34:20;4.57;;;1.33;;
21301;SDS011;10810;48.270;9.996;2023-03-26T08:36:52;6.67;;;1.83;;
21301;SDS011;10810;48.270;9.996;2023-03-26T08:39:19;2.80;;;1.63;;
21301;SDS011;10810;48.270;9.996;2023-03-26T08:42:02;7.63;;;1.43;;
21301;SDS011;10810;48.270;9.996;2023-03-26T08:51:18;2.10;;;1.30;;
21301;SDS011;10810;48.270;9.996;2023-03-26T08:57:13;5.93;;;1.40;;
21301;SDS011;10810;48.270;9.996;2023-03-26T09:03:07;1.87;;;1.13;;
21301;SDS011;10810;48.270;9.996;2023-03-26T09:05:56;2.67;;;1.23;;
21301;SDS011;10810;48.270;9.996;2023-03-26T09:19:05;5.73;;;1.73;;
21301;SDS011;10810;48.270;9.996;2023-03-26T09:27:52;3.10;;;1.50;;
21301;SDS011;10810;48.270;9.996;2023-03-26T09:33:52;4.77;;;1.10;;
21301;SDS011;10810;48.270;9.996;2023-03-26T09:36:32;1.23;;;0.90;;
21301;SDS011;10810;48.270;9.996;2023-03-26T09:39:16;2.40;;;1.00;;
21301;SDS011;10810;48.270;9.996;2023-03-26T09:42:01;1.10;;;0.90;;
21301;SDS011;10810;48.270;9.996;2023-03-26T09:44:51;3.10;;;1.10;;
21301;SDS011;10810;48.270;9.996;2023-03-26T09:47:51;1.70;;;0.90;;
21301;SDS011;10810;48.270;9.996;2023-03-26T09:50:43;1.77;;;0.90;;
21301;SDS011;10810;48.270;9.996;2023-03-26T09:53:52;3.53;;;1.20;;
21301;SDS011;10810;48.270;9.996;2023-03-26T09:56:44;1.50;;;1.00;;
21301;SDS011;10810;48.270;9.996;2023-03-26T09:59:33;4.23;;;1.10;;
21301;SDS011;10810;48.270;9.996;2023-03-26T10:02:26;3.77;;;1.10;;
21301;SDS011;10810;48.270;9.996;2023-03-26T10:05:20;1.60;;;1.03;;
21301;SDS011;10810;48.270;9.996;2023-03-26T10:08:14;2.57;;;0.90;;
21301;SDS011;10810;48.270;9.996;2023-03-26T10:10:58;4.20;;;1.03;;
21301;SDS011;10810;48.270;9.996;2023-03-26T10:13:55;2.63;;;1.33;;
21301;SDS011;10810;48.270;9.996;2023-03-26T10:16:51;1.87;;;1.00;;
21301;SDS011;10810;48.270;9.996;2023-03-26T10:19:37;1.60;;;1.03;;
21301;SDS011;10810;48.270;9.996;2023-03-26T10:22:37;2.50;;;1.40;;
21301;SDS011;10810;48.270;9.996;2023-03-26T10:26:07;3.77;;;1.33;;
21301;SDS011;10810;48.270;9.996;2023-03-26T10:29:00;2.63;;;1.47;;
21301;SDS011;10810;48.270;9.996;2023-03-26T10:31:45;3.77;;;1.63;;
21301;SDS011;10810;48.270;9.996;2023-03-26T10:34:38;5.17;;;1.70;;
21301;SDS011;10810;48.270;9.996;2023-03-26T10:37:37;3.47;;;1.20;;
21301;SDS011;10810;48.270;9.996;2023-03-26T10:40:47;1.70;;;1.00;;
21301;SDS011;10810;48.270;9.996;2023-03-26T10:43:53;2.47;;;1.20;;
21301;SDS011;10810;48.270;9.996;2023-03-26T10:49:32;2.40;;;1.20;;
21301;SDS011;10810;48.270;9.996;2023-03-26T10:52:18;3.30;;;1.30;;
21301;SDS011;10810;48.270;9.996;2023-03-26T10:54:50;2.30;;;1.30;;
21301;SDS011;10810;48.270;9.996;2023-03-26T10:57:25;2.87;;;1.10;;
21301;SDS011;10810;48.270;9.996;2023-03-26T11:00:06;3.83;;;1.27;;
21301;SDS011;10810;48.270;9.996;2023-03-26T11:02:41;1.97;;;1.17;;
21301;SDS011;10810;48.270;9.996;2023-03-26T11:05:18;4.77;;;1.30;;
21301;SDS011;10810;48.270;9.996;2023-03-26T11:07:57;3.03;;;1.20;;
21301;SDS011;10810;48.270;9.996;2023-03-26T11:10:33;2.13;;;1.10;;
21301;SDS011;10810;48.270;9.996;2023-03-26T11:13:11;2.30;;;0.90;;
21301;SDS011;10810;48.270;9.996;2023-03-26T11:15:51;1.50;;;0.80;;
21301;SDS011;10810;48.270;9.996;2023-03-26T11:18:27;1.40;;;0.83;;
21301;SDS011;10810;48.270;9.996;2023-03-26T11:21:05;2.07;;;0.73;;
21301;SDS011;10810;48.270;9.996;2023-03-26T11:23:52;0.73;;;0.60;;
21301;SDS011;10810;48.270;9.996;2023-03-26T11:26:42;1.30;;;0.70;;
21301;SDS011;10810;48.270;9.996;2023-03-26T11:29:24;2.40;;;0.77;;
21301;SDS011;10810;48.270;9.996;2023-03-26T11:32:09;1.33;;;0.80;;
21301;SDS011;10810;48.270;9.996;2023-03-26T11:34:55;4.20;;;0.70;;
21301;SDS011;10810;48.270;9.996;2023-03-26T11:37:46;1.00;;;0.60;;
21301;SDS011;10810;48.270;9.996;2023-03-26T11:40:20;2.37;;;0.80;;
21301;SDS011;10810;48.270;9.996;2023-03-26T11:42:55;0.53;;;0.53;;
21301;SDS011;10810;48.270;9.996;2023-03-26T11:45:30;2.23;;;0.80;;
21301;SDS011;10810;48.270;9.996;2023-03-26T11:48:05;2.97;;;0.97;;
21301;SDS011;10810;48.270;9.996;2023-03-26T11:50:37;1.37;;;0.80;;
21301;SDS011;10810;48.270;9.996;2023-03-26T11:53:11;1.40;;;0.80;;
21301;SDS011;10810;48.270;9.996;2023-03-26T11:55:45;2.07;;;0.80;;
21301;SDS011;10810;48.270;9.996;2023-03-26T11:58:25;2.33;;;0.73;;
21301;SDS011;10810;48.270;9.996;2023-03-26T12:01:24;2.20;;;0.97;;
21301;SDS011;10810;48.270;9.996;2023-03-26T12:03:57;2.17;;;0.90;;
21301;SDS011;10810;48.270;9.996;2023-03-26T12:06:32;2.00;;;0.90;;
21301;SDS011;10810;48.270;9.996;2023-03-26T12:09:02;2.03;;;1.00;;
21301;SDS011;10810;48.270;9.996;2023-03-26T12:11:30;1.97;;;1.00;;
21301;SDS011;10810;48.270;9.996;2023-03-26T12:14:00;2.73;;;0.77;;
21301;SDS011;10810;48.270;9.996;2023-03-26T12:16:33;3.03;;;0.80;;
21301;SDS011;10810;48.270;9.996;2023-03-26T12:19:18;2.03;;;0.80;;
21301;SDS011;10810;48.270;9.996;2023-03-26T12:22:02;0.90;;;0.60;;
21301;SDS011;10810;48.270;9.996;2023-03-26T12:24:37;1.70;;;0.50;;
21301;SDS011;10810;48.270;9.996;2023-03-26T12:27:19;2.10;;;0.80;;
21301;SDS011;10810;48.270;9.996;2023-03-26T12:29:50;1.00;;;0.50;;
21301;SDS011;10810;48.270;9.996;2023-03-26T12:35:22;0.70;;;0.50;;
21301;SDS011;10810;48.270;9.996;2023-03-26T12:37:56;1.30;;;0.70;;
21301;SDS011;10810;48.270;9.996;2023-03-26T12:41:08;2.00;;;0.87;;
21301;SDS011;10810;48.270;9.996;2023-03-26T12:43:41;3.27;;;0.90;;
21301;SDS011;10810;48.270;9.996;2023-03-26T12:46:30;3.93;;;1.00;;
21301;SDS011;10810;48.270;9.996;2023-03-26T12:52:41;1.33;;;0.67;;
21301;SDS011;10810;48.270;9.996;2023-03-26T12:55:54;2.90;;;0.77;;
21301;SDS011;10810;48.270;9.996;2023-03-26T12:58:51;3.13;;;0.70;;
21301;SDS011;10810;48.270;9.996;2023-03-26T13:02:05;2.37;;;0.73;;
21301;SDS011;10810;48.270;9.996;2023-03-26T13:04:57;1.30;;;0.80;;
21301;SDS011;10810;48.270;9.996;2023-03-26T13:10:58;2.20;;;0.70;;
21301;SDS011;10810;48.270;9.996;2023-03-26T13:17:07;3.13;;;1.33;;
21301;SDS011;10810;48.270;9.996;2023-03-26T13:20:01;2.17;;;0.60;;
21301;SDS011;10810;48.270;9.996;2023-03-26T13:23:00;1.43;;;0.70;;
21301;SDS011;10810;48.270;9.996;2023-03-26T13:25:40;1.70;;;0.50;;
21301;SDS011;10810;48.270;9.996;2023-03-26T13:31:09;0.90;;;0.60;;
21301;SDS011;10810;48.270;9.996;2023-03-26T13:33:47;1.03;;;0.60;;
21301;SDS011;10810;48.270;9.996;2023-03-26T13:36:30;1.67;;;0.70;;
21301;SDS011;10810;48.270;9.996;2023-03-26T13:39:08;1.93;;;0.67;;
21301;SDS011;10810;48.270;9.996;2023-03-26T13:44:47;0.70;;;0.50;;
21301;SDS011;10810;48.270;9.996;2023-03-26T13:47:23;0.50;;;0.40;;
21301;SDS011;10810;48.270;9.996;2023-03-26T13:49:55;2.03;;;0.77;;
21301;SDS011;10810;48.270;9.996;2023-03-26T13:52:29;3.43;;;0.40;;
21301;SDS011;10810;48.270;9.996;2023-03-26T13:55:06;0.63;;;0.40;;
21301;SDS011;10810;48.270;9.996;2023-03-26T13:57:45;1.30;;;0.50;;
21301;SDS011;10810;48.270;9.996;2023-03-26T14:03:16;0.50;;;0.40;;
21301;SDS011;10810;48.270;9.996;2023-03-26T14:05:50;2.83;;;0.40;;
21301;SDS011;10810;48.270;9.996;2023-03-26T14:08:23;0.97;;;0.40;;
21301;SDS011;10810;48.270;9.996;2023-03-26T14:10:55;0.60;;;0.33;;
21301;SDS011;10810;48.270;9.996;2023-03-26T14:13:32;1.83;;;0.40;;
21301;SDS011;10810;48.270;9.996;2023-03-26T14:16:10;3.63;;;0.50;;
21301;SDS011;10810;48.270;9.996;2023-03-26T14:18:45;0.93;;;0.40;;
21301;SDS011;10810;48.270;9.996;2023-03-26T14:21:23;0.70;;;0.40;;
21301;SDS011;10810;48.270;9.996;2023-03-26T14:29:51;0.30;;;0.27;;
21301;SDS011;10810;48.270;9.996;2023-03-26T14:32:46;1.33;;;0.50;;
21301;SDS011;10810;48.270;9.996;2023-03-26T14:35:30;0.40;;;0.40;;
21301;SDS011;10810;48.270;9.996;2023-03-26T14:38:05;1.73;;;0.50;;
21301;SDS011;10810;48.270;9.996;2023-03-26T14:40:51;0.93;;;0.23;;
21301;SDS011;10810;48.270;9.996;2023-03-26T14:46:39;2.43;;;0.40;;
21301;SDS011;10810;48.270;9.996;2023-03-26T14:49:26;0.53;;;0.30;;
21301;SDS011;10810;48.270;9.996;2023-03-26T14:52:04;0.93;;;0.33;;
21301;SDS011;10810;48.270;9.996;2023-03-26T14:54:38;0.40;;;0.30;;
21301;SDS011;10810;48.270;9.996;2023-03-26T15:00:37;0.97;;;0.30;;
21301;SDS011;10810;48.270;9.996;2023-03-26T15:03:58;0.97;;;0.40;;
21301;SDS011;10810;48.270;9.996;2023-03-26T15:10:22;1.37;;;0.30;;
21301;SDS011;10810;48.270;9.996;2023-03-26T15:22:39;0.47;;;0.30;;
21301;SDS011;10810;48.270;9.996;2023-03-26T15:25:46;3.70;;;0.67;;
21301;SDS011;10810;48.270;9.996;2023-03-26T15:31:39;0.63;;;0.40;;
21301;SDS011;10810;48.270;9.996;2023-03-26T15:34:44;5.17;;;1.60;;
21301;SDS011;10810;48.270;9.996;2023-03-26T15:40:28;3.50;;;0.90;;
21301;SDS011;10810;48.270;9.996;2023-03-26T15:43:12;0.63;;;0.60;;
21301;SDS011;10810;48.270;9.996;2023-03-26T15:45:40;2.03;;;0.40;;
21301;SDS011;10810;48.270;9.996;2023-03-26T15:51:29;0.90;;;0.30;;
21301;SDS011;10810;48.270;9.996;2023-03-26T15:54:07;1.00;;;0.50;;
21301;SDS011;10810;48.270;9.996;2023-03-26T15:56:44;0.90;;;0.50;;
21301;SDS011;10810;48.270;9.996;2023-03-26T15:59:29;1.60;;;0.70;;
21301;SDS011;10810;48.270;9.996;2023-03-26T16:02:12;1.27;;;0.50;;
21301;SDS011;10810;48.270;9.996;2023-03-26T16:04:50;1.97;;;0.73;;
21301;SDS011;10810;48.270;9.996;2023-03-26T16:07:34;2.43;;;0.60;;
21301;SDS011;10810;48.270;9.996;2023-03-26T16:10:17;1.53;;;0.63;;
21301;SDS011;10810;48.270;9.996;2023-03-26T16:13:16;1.23;;;0.53;;
21301;SDS011;10810;48.270;9.996;2023-03-26T16:15:59;1.07;;;0.50;;
21301;SDS011;10810;48.270;9.996;2023-03-26T16:19:30;4.23;;;0.57;;
21301;SDS011;10810;48.270;9.996;2023-03-26T16:22:05;3.33;;;0.60;;
21301;SDS011;10810;48.270;9.996;2023-03-26T16:24:39;1.37;;;0.40;;
21301;SDS011;10810;48.270;9.996;2023-03-26T16:32:54;0.33;;;0.30;;
21301;SDS011;10810;48.270;9.996;2023-03-26T16:35:36;1.33;;;0.30;;
21301;SDS011;10810;48.270;9.996;2023-03-26T16:38:26;0.40;;;0.33;;
21301;SDS011;10810;48.270;9.996;2023-03-26T16:41:16;0.63;;;0.30;;
21301;SDS011;10810;48.270;9.996;2023-03-26T16:43:48;1.37;;;0.30;;
21301;SDS011;10810;48.270;9.996;2023-03-26T16:46:35;0.30;;;0.30;;
21301;SDS011;10810;48.270;9.996;2023-03-26T16:49:14;1.63;;;0.40;;
21301;SDS011;10810;48.270;9.996;2023-03-26T16:52:01;0.47;;;0.33;;
21301;SDS011;10810;48.270;9.996;2023-03-26T16:54:37;1.00;;;0.50;;
21301;SDS011;10810;48.270;9.996;2023-03-26T16:57:35;1.87;;;1.07;;
21301;SDS011;10810;48.270;9.996;2023-03-26T17:00:20;3.47;;;1.30;;
21301;SDS011;10810;48.270;9.996;2023-03-26T17:02:55;3.00;;;1.20;;
21301;SDS011;10810;48.270;9.996;2023-03-26T17:05:34;4.60;;;1.33;;
21301;SDS011;10810;48.270;9.996;2023-03-26T17:08:09;5.30;;;1.40;;
21301;SDS011;10810;48.270;9.996;2023-03-26T17:10:45;2.00;;;0.80;;
21301;SDS011;10810;48.270;9.996;2023-03-26T17:13:21;0.90;;;0.60;;
21301;SDS011;10810;48.270;9.996;2023-03-26T17:15:58;1.10;;;0.80;;
21301;SDS011;10810;48.270;9.996;2023-03-26T17:18:36;2.20;;;0.90;;
21301;SDS011;10810;48.270;9.996;2023-03-26T17:21:16;1.63;;;0.80;;
21301;SDS011;10810;48.270;9.996;2023-03-26T17:24:00;0.97;;;0.77;;